TimeEST,TemperatureF,Dew PointF,Humidity,Sea Level PressureIn,VisibilityMPH,Wind Direction,Wind SpeedMPH,Gust SpeedMPH,PrecipitationIn,Events,Conditions,WindDirDegrees,DateUTC
12:53 AM,75.9,66.9,74,30.06,10.0,ENE,5.8,-,N/A,,Clear,60,2013-11-12 05:53:00
1:53 AM,73.9,66.9,79,30.05,10.0,Calm,Calm,-,N/A,,Clear,0,2013-11-12 06:53:00
2:53 AM,73.0,68.0,84,30.04,10.0,Calm,Calm,-,N/A,,Clear,0,2013-11-12 07:53:00
3:53 AM,72.0,68.0,87,30.04,10.0,NNW,4.6,-,N/A,,Clear,330,2013-11-12 08:53:00
4:53 AM,71.1,68.0,90,30.03,10.0,NNW,3.5,-,N/A,,Partly Cloudy,330,2013-11-12 09:53:00
5:53 AM,71.1,68.0,90,30.04,10.0,NNW,3.5,-,N/A,,Scattered Clouds,340,2013-11-12 10:53:00
6:53 AM,71.1,69.1,93,30.06,10.0,NNW,3.5,-,N/A,,Scattered Clouds,340,2013-11-12 11:53:00
7:53 AM,75.0,69.1,82,30.07,10.0,Calm,Calm,-,N/A,,Scattered Clouds,0,2013-11-12 12:53:00
8:53 AM,81.0,70.0,69,30.08,10.0,NNE,5.8,-,N/A,,Partly Cloudy,30,2013-11-12 13:53:00
9:53 AM,82.0,68.0,62,30.09,10.0,ENE,8.1,-,N/A,,Scattered Clouds,70,2013-11-12 14:53:00
10:53 AM,82.0,68.0,62,30.07,10.0,NE,6.9,-,N/A,,Scattered Clouds,40,2013-11-12 15:53:00
11:53 AM,84.0,68.0,58,30.05,10.0,NE,8.1,-,N/A,,Scattered Clouds,50,2013-11-12 16:53:00
12:53 PM,82.9,66.9,58,30.02,10.0,NNE,8.1,-,N/A,,Scattered Clouds,30,2013-11-12 17:53:00
1:53 PM,82.9,66.0,56,30.01,10.0,ENE,12.7,17.3,N/A,,Scattered Clouds,70,2013-11-12 18:53:00
2:53 PM,81.0,66.9,62,29.99,10.0,ENE,9.2,-,N/A,,Scattered Clouds,60,2013-11-12 19:53:00
3:53 PM,81.0,66.9,62,29.99,10.0,NE,9.2,-,N/A,,Clear,50,2013-11-12 20:53:00
4:53 PM,79.0,66.9,66,29.99,10.0,NE,9.2,-,N/A,,Clear,50,2013-11-12 21:53:00
5:53 PM,79.0,66.0,64,30.00,10.0,NE,4.6,-,N/A,,Clear,50,2013-11-12 22:53:00
6:53 PM,79.0,66.9,66,30.01,10.0,NE,4.6,-,N/A,,Scattered Clouds,40,2013-11-12 23:53:00
7:53 PM,78.1,66.9,68,30.02,10.0,North,4.6,-,N/A,,Clear,10,2013-11-13 00:53:00
8:53 PM,78.1,66.9,68,30.04,10.0,North,4.6,-,N/A,,Clear,360,2013-11-13 01:53:00
9:53 PM,77.0,68.0,74,30.05,10.0,North,8.1,-,N/A,,Clear,350,2013-11-13 02:53:00
10:53 PM,75.9,69.1,79,30.05,10.0,North,5.8,-,N/A,,Clear,350,2013-11-13 03:53:00
11:53 PM,75.0,68.0,79,30.04,10.0,North,5.8,-,N/A,,Clear,350,2013-11-13 04:53:00